Time;durP1;ratioP1;P1;durP2;ratioP2;P2;SDS_P1;SDS_P2;PMS_P1;PMS_P2;Temp;Humidity;BMP_temperature;BMP_pressure;BME280_temperature;BME280_humidity;BME280_pressure;Samples;Min_cycle;Max_cycle;Signal;HPM_P1;HPM_P2
2022/09/12 00:04:22;;;;;;;1.77;1.13;;;15.50;99.90;;;14.08;84.29;99867.94;10260128;28;96607;-87
2022/09/12 00:09:25;;;;;;;1.73;1.20;;;15.50;99.90;;;14.17;83.46;99871.28;10303249;28;96539;-85
2022/09/12 00:14:28;;;;;;;1.95;1.23;;;15.60;99.90;;;14.26;82.50;99870.06;10292209;28;96892;-86
2022/09/12 00:19:31;;;;;;;1.73;1.10;;;15.70;99.90;;;14.32;81.72;99869.25;10323722;28;96637;-86
2022/09/12 00:24:34;;;;;;;1.52;0.90;;;15.80;99.90;;;14.39;81.01;99870.13;10285071;28;96546;-85
2022/09/12 00:29:37;;;;;;;2.45;1.33;;;15.80;99.90;;;14.45;80.37;99871.16;10321688;28;96593;-85
2022/09/12 00:34:40;;;;;;;1.52;1.08;;;15.90;99.90;;;14.50;79.66;99866.06;10294212;28;98374;-87
2022/09/12 00:39:42;;;;;;;2.55;1.38;;;15.90;99.90;;;14.52;79.26;99857.88;10312691;28;96819;-89
2022/09/12 00:44:50;;;;;;;2.10;1.40;;;15.90;99.90;;;14.55;78.98;99849.44;10293641;28;96553;-87
2022/09/12 00:50:12;;;;;;;2.03;1.23;;;15.90;99.90;;;14.57;78.45;99848.19;10292056;28;96857;-88
2022/09/12 00:55:25;;;;;;;1.77;1.20;;;16.00;99.90;;;14.57;78.34;99850.03;10299474;28;96548;-87
2022/09/12 01:00:28;;;;;;;2.30;1.40;;;16.00;99.90;;;14.56;78.56;99849.22;10273023;28;97363;-90
2022/09/12 01:05:35;;;;;;;2.10;1.10;;;16.00;99.90;;;14.57;78.11;99845.50;10309160;28;96643;-87
2022/09/12 01:10:40;;;;;;;2.58;1.25;;;16.00;99.90;;;14.52;78.14;99853.34;10298188;28;97431;-88
2022/09/12 01:15:43;;;;;;;1.73;1.08;;;16.00;99.90;;;14.50;78.25;99849.19;10291938;28;96607;-87
2022/09/12 01:21:01;;;;;;;2.05;1.20;;;15.90;99.90;;;14.45;78.37;99855.13;10287267;28;97378;-89
2022/09/12 01:26:46;;;;;;;1.88;1.23;;;15.80;99.90;;;14.38;78.60;99863.13;10285256;28;98048;-90
2022/09/12 01:32:16;;;;;;;1.65;1.13;;;15.80;99.90;;;14.24;79.09;99872.13;10323835;28;96630;-93
2022/09/12 01:37:49;;;;;;;2.35;1.30;;;15.70;99.90;;;14.07;80.23;99871.63;10293023;28;96545;-88
2022/09/12 01:43:20;;;;;;;1.85;1.33;;;15.50;99.90;;;13.96;81.04;99869.50;10286341;28;96626;-85
2022/09/12 01:48:31;;;;;;;1.47;1.20;;;15.40;99.90;;;13.91;81.50;99871.94;10323457;28;98477;-86
2022/09/12 01:53:41;;;;;;;2.13;1.10;;;15.30;99.90;;;13.91;81.60;99879.97;10253591;28;96705;-86
2022/09/12 01:59:08;;;;;;;2.20;1.17;;;15.30;99.90;;;13.86;81.58;99880.56;10275826;28;97940;-86
2022/09/12 02:04:29;;;;;;;2.33;1.30;;;15.30;99.90;;;13.76;82.16;99873.94;10296409;28;96713;-86
2022/09/12 02:09:48;;;;;;;2.00;1.48;;;15.20;99.90;;;13.69;82.70;99873.06;10310111;28;96929;-87
2022/09/12 02:14:58;;;;;;;2.53;1.60;;;15.10;99.90;;;13.63;83.22;99864.81;10291177;28;96647;-88
2022/09/12 02:20:29;;;;;;;3.38;1.88;;;15.10;99.90;;;13.60;83.61;99875.06;10294693;28;97148;-90
2022/09/12 02:25:56;;;;;;;2.65;1.63;;;15.00;99.90;;;13.61;84.03;99877.56;10289331;28;96542;-86
2022/09/12 02:31:22;;;;;;;2.65;1.52;;;15.00;99.90;;;13.67;84.17;99883.94;10270409;28;97226;-90
2022/09/12 02:36:45;;;;;;;2.83;1.80;;;15.10;99.90;;;13.66;84.28;99884.94;10252564;28;96595;-88
2022/09/12 02:41:51;;;;;;;3.08;1.75;;;15.10;99.90;;;13.62;84.83;99884.53;10280283;28;96535;-87
2022/09/12 02:47:18;;;;;;;4.10;1.93;;;15.10;99.90;;;13.60;84.96;99902.56;10306122;28;97143;-87
2022/09/12 02:52:21;;;;;;;3.20;2.10;;;15.10;99.90;;;13.64;85.23;99887.81;10275442;28;96738;-86
2022/09/12 02:57:24;;;;;;;3.30;1.80;;;15.10;99.90;;;13.61;85.32;99888.22;10280171;28;98459;-86
2022/09/12 03:03:10;;;;;;;3.33;1.90;;;15.10;99.90;;;13.59;85.50;99876.91;10289642;28;96584;-88
2022/09/12 03:08:20;;;;;;;3.63;2.30;;;15.10;99.90;;;13.60;85.87;99880.41;10290072;28;96761;-87
2022/09/12 03:14:04;;;;;;;3.92;1.75;;;15.10;99.90;;;13.66;85.89;99892.97;10298314;28;98438;-88
2022/09/12 03:19:31;;;;;;;3.03;1.83;;;15.10;99.90;;;13.73;85.51;99909.03;10305810;28;98007;-87
2022/09/12 03:25:15;;;;;;;3.47;1.80;;;15.20;99.90;;;13.74;85.30;99905.34;10295251;28;96642;-88
2022/09/12 03:30:19;;;;;;;3.25;1.80;;;15.20;99.90;;;13.74;85.16;99911.53;10247449;28;97546;-89
2022/09/12 03:35:23;;;;;;;3.67;2.20;;;15.20;99.90;;;13.72;84.83;99923.41;10305187;28;96965;-87
2022/09/12 03:40:26;;;;;;;3.97;2.20;;;15.20;99.90;;;13.68;84.81;99911.47;10289083;28;98002;-87
2022/09/12 03:45:29;;;;;;;2.10;1.60;;;15.20;99.90;;;13.68;84.83;99908.81;10325932;28;96485;-87
2022/09/12 03:50:33;;;;;;;3.50;2.15;;;15.20;99.90;;;13.65;84.93;99902.81;10282036;28;96583;-88
2022/09/12 03:55:38;;;;;;;3.07;2.00;;;15.10;99.90;;;13.60;85.00;99907.09;10293228;28;96606;-90
2022/09/12 04:00:43;;;;;;;4.03;2.30;;;15.10;99.90;;;13.57;85.00;99919.00;10324055;28;97107;-90
2022/09/12 04:05:46;;;;;;;4.07;2.47;;;15.10;99.90;;;13.55;85.17;99907.66;10270549;28;96534;-92
2022/09/12 04:10:49;;;;;;;3.55;2.20;;;15.00;99.90;;;13.52;85.14;99905.41;10282891;28;96557;-91
2022/09/12 04:15:59;;;;;;;2.28;1.60;;;15.00;99.90;;;13.47;84.97;99915.81;10292481;28;96820;-93
2022/09/12 04:21:10;;;;;;;3.37;1.97;;;15.00;99.90;;;13.45;84.98;99922.38;10314949;28;96835;-95
2022/09/12 04:26:15;;;;;;;2.90;1.90;;;14.90;99.90;;;13.43;85.08;99922.56;10301468;28;97549;-92
2022/09/12 04:31:21;;;;;;;2.60;1.70;;;14.90;99.90;;;13.45;85.06;99912.53;10287022;28;96784;-92
2022/09/12 04:36:25;;;;;;;4.65;2.20;;;14.90;99.90;;;13.51;84.84;99916.28;10290805;28;98146;-92
2022/09/12 04:41:34;;;;;;;3.30;2.15;;;15.00;99.90;;;13.53;84.51;99909.72;10263138;28;96432;-93
2022/09/12 04:46:41;;;;;;;2.28;1.63;;;15.00;99.90;;;13.55;84.58;99917.53;10289098;28;96566;-92
2022/09/12 04:51:45;;;;;;;4.00;1.90;;;15.10;99.90;;;13.48;84.28;99914.81;10322210;28;97161;-93
2022/09/12 04:56:49;;;;;;;3.88;2.10;;;15.10;99.90;;;13.44;84.67;99918.91;10294108;28;96508;-92
2022/09/12 05:01:52;;;;;;;3.90;2.50;;;15.00;99.90;;;13.42;84.91;99920.91;10289809;28;96611;-92
2022/09/12 05:06:55;;;;;;;5.28;2.17;;;15.00;99.90;;;13.41;85.48;99913.94;10256903;28;98112;-92
2022/09/12 05:11:58;;;;;;;3.10;1.83;;;15.00;99.90;;;13.52;85.28;99918.75;10286444;28;96506;-92
2022/09/12 05:17:06;;;;;;;2.43;1.70;;;15.10;99.90;;;13.58;85.33;99925.97;10314564;28;96624;-91
2022/09/12 05:22:09;;;;;;;3.78;2.47;;;15.10;99.90;;;13.58;85.27;99933.16;10271685;28;96488;-92
2022/09/12 05:27:11;;;;;;;4.25;2.45;;;15.10;99.90;;;13.60;85.62;99942.63;10297586;28;96782;-92
2022/09/12 05:32:15;;;;;;;4.78;2.92;;;15.10;99.90;;;13.64;86.06;99953.75;10279417;28;96978;-92
2022/09/12 05:37:18;;;;;;;3.30;2.22;;;15.10;99.90;;;13.68;86.27;99951.53;10297182;28;98301;-93
2022/09/12 05:42:22;;;;;;;3.28;2.30;;;15.20;99.90;;;13.81;86.38;99951.63;10296518;28;96555;-90
2022/09/12 05:47:25;;;;;;;3.20;1.80;;;15.30;99.90;;;13.94;86.24;99959.72;10292680;28;96667;-91
2022/09/12 05:52:27;;;;;;;2.17;1.70;;;15.40;99.90;;;14.17;84.97;99946.09;10292810;28;96498;-93
2022/09/12 05:57:32;;;;;;;3.95;1.88;;;15.60;99.90;;;14.43;82.83;99953.41;10293542;28;96460;-91
2022/09/12 06:02:34;;;;;;;3.97;2.63;;;15.80;99.90;;;14.64;81.36;99955.19;10292637;28;96902;-91
2022/09/12 06:07:37;;;;;;;3.22;2.35;;;16.00;99.90;;;14.76;81.59;99950.09;10291981;28;96449;-93
2022/09/12 06:12:40;;;;;;;4.72;2.50;;;16.20;99.90;;;14.83;81.35;99950.94;10293014;28;96440;-91
2022/09/12 06:17:43;;;;;;;4.57;3.05;;;16.30;99.90;;;14.89;81.45;99950.94;10291787;28;96707;-89
2022/09/12 06:22:52;;;;;;;4.53;2.38;;;16.30;99.90;;;14.97;80.96;99955.28;10304247;28;97318;-90
2022/09/12 06:27:55;;;;;;;4.75;2.83;;;16.40;99.90;;;15.09;81.20;99960.88;10291842;28;96388;-91
2022/09/12 06:32:58;;;;;;;4.68;2.90;;;16.50;99.90;;;15.20;80.92;99958.41;10287929;28;96379;-90
2022/09/12 06:38:01;;;;;;;4.28;2.65;;;16.60;99.90;;;15.35;79.78;99958.22;10291678;28;96461;-91
2022/09/12 06:43:04;;;;;;;2.85;1.80;;;16.70;99.90;;;15.52;77.86;99961.31;10292653;28;96480;-90
2022/09/12 06:48:07;;;;;;;4.25;2.58;;;16.90;99.90;;;15.71;77.43;99965.06;10272610;28;96705;-91
2022/09/12 06:53:10;;;;;;;5.15;3.28;;;17.10;99.90;;;15.79;76.90;99957.66;10290316;28;96510;-91
2022/09/12 06:58:13;;;;;;;3.65;2.33;;;17.20;99.90;;;15.90;77.25;99961.56;10291941;28;96534;-91
2022/09/12 07:03:16;;;;;;;5.35;3.03;;;17.30;99.90;;;15.99;76.93;99967.50;10291164;28;96655;-92
2022/09/12 07:08:19;;;;;;;3.72;2.42;;;17.40;99.90;;;16.08;76.64;99971.63;10304933;28;96558;-90
2022/09/12 07:13:22;;;;;;;5.03;3.38;;;17.50;99.90;;;16.31;76.14;99981.88;10287984;28;96642;-91
2022/09/12 07:18:26;;;;;;;2.47;1.52;;;17.70;99.90;;;16.46;72.76;99973.59;10305063;28;98114;-91
2022/09/12 07:23:29;;;;;;;2.90;1.85;;;17.80;99.90;;;16.49;72.19;99987.41;10305905;28;97380;-90
2022/09/12 07:28:33;;;;;;;2.33;1.60;;;17.90;99.90;;;16.40;71.26;99988.66;10288454;28;96641;-91
2022/09/12 07:33:38;;;;;;;2.30;1.48;;;17.90;99.90;;;16.36;70.40;99984.75;10289069;28;96619;-92
2022/09/12 07:38:42;;;;;;;1.70;1.10;;;17.80;99.90;;;16.49;70.09;99989.25;10290903;28;96559;-92
2022/09/12 07:43:46;;;;;;;2.17;1.40;;;17.90;99.90;;;16.66;69.78;99990.41;10288280;28;96753;-91
2022/09/12 07:48:51;;;;;;;2.42;1.50;;;18.00;99.90;;;16.81;70.08;99999.06;10291021;28;96566;-91
2022/09/12 07:53:55;;;;;;;3.00;1.60;;;18.20;99.90;;;16.91;69.33;99985.16;10290560;28;96530;-88
2022/09/12 07:58:58;;;;;;;1.90;1.40;;;18.40;99.40;;;16.98;68.80;99983.31;10266876;28;96558;-90
2022/09/12 08:04:02;;;;;;;2.78;1.40;;;18.40;99.40;;;17.28;68.40;99994.28;10266424;28;96413;-89
2022/09/12 08:09:06;;;;;;;2.42;1.48;;;18.70;99.10;;;17.57;67.15;99990.16;10283065;28;96524;-90
2022/09/12 08:14:09;;;;;;;3.15;1.58;;;19.00;98.50;;;17.91;66.17;99988.03;10264148;28;98973;-90
2022/09/12 08:19:12;;;;;;;1.88;1.40;;;19.30;97.90;;;18.17;64.64;99986.94;10289908;28;96354;-89
2022/09/12 08:24:16;;;;;;;2.25;1.27;;;19.60;97.20;;;18.40;63.17;99979.03;10286907;28;97126;-89
2022/09/12 08:29:20;;;;;;;2.60;1.40;;;19.80;95.90;;;18.65;63.06;99989.72;10304704;28;97452;-88
2022/09/12 08:34:23;;;;;;;2.88;1.50;;;20.10;95.70;;;18.79;60.67;99976.94;10296235;28;96908;-90
2022/09/12 08:39:26;;;;;;;2.50;1.60;;;20.20;94.20;;;18.96;62.33;99980.66;10296814;28;97326;-88
2022/09/12 08:44:46;;;;;;;3.05;1.40;;;20.30;95.10;;;19.22;61.85;99978.63;10275983;28;96584;-90
2022/09/12 08:50:07;;;;;;;2.00;1.30;;;20.60;93.90;;;19.36;60.50;99960.38;10269071;28;96470;-88
2022/09/12 08:55:26;;;;;;;2.10;1.50;;;20.70;93.40;;;19.43;58.74;99956.56;10312292;28;96571;-89
2022/09/12 09:00:54;;;;;;;6.60;2.80;;;20.80;92.60;;;19.61;59.44;99960.22;10294886;28;96840;-90
2022/09/12 09:06:45;;;;;;;2.90;1.20;;;20.90;92.60;;;19.79;58.16;99960.13;10295872;28;96654;-90
2022/09/12 09:12:22;;;;;;;0.95;0.80;;;21.10;92.40;;;19.77;56.67;99959.53;10302652;28;96570;-90
2022/09/12 09:17:34;;;;;;;1.00;0.85;;;21.10;90.20;;;19.66;55.33;99961.16;10287537;28;96553;-90
2022/09/12 09:22:43;;;;;;;1.13;0.80;;;21.00;89.30;;;19.70;55.75;99950.75;10254897;28;96605;-87
2022/09/12 09:28:01;;;;;;;2.08;1.13;;;21.10;90.20;;;19.89;55.77;99965.75;10281866;28;96377;-88
2022/09/12 09:33:08;;;;;;;2.28;1.20;;;21.20;89.70;;;19.93;53.93;99958.03;10311366;28;96596;-85
2022/09/12 09:38:40;;;;;;;1.55;0.95;;;21.30;87.00;;;20.11;53.85;99959.78;10294600;28;96655;-88
2022/09/12 09:43:44;;;;;;;1.42;0.70;;;21.40;84.70;;;20.29;52.65;99946.16;10294651;28;96640;-87
2022/09/12 09:48:49;;;;;;;1.42;0.82;;;21.70;85.70;;;20.37;52.73;99951.16;10294666;28;96557;-87
2022/09/12 09:53:59;;;;;;;1.95;0.95;;;21.80;82.80;;;20.49;52.23;99943.91;10291613;28;96627;-89
2022/09/12 09:59:26;;;;;;;1.58;1.05;;;21.90;81.90;;;20.30;50.68;99950.47;10299027;28;96542;-88
2022/09/12 10:04:34;;;;;;;1.40;0.93;;;21.70;78.60;;;19.90;50.79;99967.41;10299450;28;96466;-90
2022/09/12 10:10:25;;;;;;;1.20;1.00;;;21.40;79.80;;;19.53;53.04;99966.75;10297105;28;96562;-90
2022/09/12 10:15:29;;;;;;;2.10;0.90;;;21.00;82.00;;;19.25;53.88;99956.63;10294022;28;96481;-87
2022/09/12 10:20:44;;;;;;;1.40;0.93;;;20.70;82.90;;;19.08;55.32;99966.44;10295667;28;96495;-89
2022/09/12 10:25:54;;;;;;;1.60;1.02;;;20.50;84.90;;;19.10;55.96;99964.31;10292786;28;96728;-88
2022/09/12 10:30:58;;;;;;;1.10;0.80;;;20.50;85.30;;;19.14;56.28;99958.25;10278714;28;97612;-89
2022/09/12 10:36:02;;;;;;;3.08;1.00;;;20.50;85.80;;;19.49;55.77;99942.16;10292009;28;96538;-89
2022/09/12 10:41:08;;;;;;;1.00;0.70;;;20.80;85.70;;;19.78;54.72;99928.81;10292504;28;98146;-90
2022/09/12 10:46:15;;;;;;;1.75;1.00;;;21.20;84.70;;;19.88;54.23;99934.47;10269087;28;97319;-88
2022/09/12 10:51:24;;;;;;;1.27;0.98;;;21.30;83.80;;;19.85;53.96;99940.34;10293593;28;97705;-92
2022/09/12 10:56:32;;;;;;;1.00;0.70;;;21.30;82.50;;;19.77;54.61;99932.59;10293170;28;96682;-88
2022/09/12 11:01:45;;;;;;;1.25;0.88;;;21.20;83.60;;;20.04;54.86;99927.53;10292480;28;96593;-90
2022/09/12 11:07:30;;;;;;;0.57;0.50;;;21.40;84.80;;;20.95;51.98;99923.19;10291846;28;96607;-90
2022/09/12 11:12:45;;;;;;;1.10;0.65;;;22.30;81.80;;;21.43;50.18;99908.38;10259712;28;97792;-90
2022/09/12 11:18:25;;;;;;;0.50;0.40;;;22.70;79.10;;;22.34;47.46;99899.91;10306137;28;96548;-91
2022/09/12 11:24:14;;;;;;;0.93;0.60;;;23.40;75.00;;;23.16;44.63;99905.16;10307027;28;97841;-88
2022/09/12 11:29:36;;;;;;;0.77;0.57;;;24.10;69.70;;;22.64;42.86;99904.88;10252685;28;98423;-89
2022/09/12 11:35:24;;;;;;;0.52;0.50;;;23.80;68.20;;;21.76;44.80;99912.09;10279292;28;96464;-88
2022/09/12 11:40:34;;;;;;;1.13;0.63;;;23.10;69.30;;;21.02;46.33;99913.03;10267255;28;98036;-90
2022/09/12 11:45:43;;;;;;;;;;;22.30;70.90;;;20.51;48.03;99916.66;10289024;28;98269;-88
2022/09/12 11:50:46;;;;;;;1.38;0.70;;;21.90;72.60;;;20.05;49.00;99911.13;10267751;28;96522;-89
2022/09/12 11:56:24;;;;;;;1.55;0.88;;;21.50;73.70;;;19.86;51.10;99914.19;10288952;28;98114;-89
2022/09/12 12:01:40;;;;;;;1.50;0.88;;;21.20;76.30;;;19.80;51.75;99909.75;10253984;28;97206;-88
2022/09/12 12:07:01;;;;;;;1.53;0.93;;;21.20;77.20;;;19.93;52.28;99899.53;10290250;28;97551;-90
2022/09/12 12:12:10;;;;;;;2.20;1.02;;;21.30;78.00;;;20.05;52.33;99913.00;10309793;28;96965;-90
2022/09/12 12:17:24;;;;;;;0.60;0.50;;;21.40;77.80;;;20.15;52.01;99906.97;10275199;28;96901;-91
2022/09/12 12:22:28;;;;;;;1.13;0.60;;;21.50;77.50;;;20.15;52.23;99901.59;10297929;28;96519;-90
2022/09/12 12:27:53;;;;;;;1.25;0.90;;;21.50;77.80;;;20.12;52.31;99899.38;10296294;28;96544;-90
2022/09/12 12:33:12;;;;;;;1.00;0.70;;;21.50;77.70;;;20.08;52.30;99895.50;10296469;28;96672;-90
2022/09/12 12:38:35;;;;;;;1.35;0.75;;;21.50;77.80;;;20.29;52.66;99890.31;10292006;28;96673;-90
2022/09/12 12:43:38;;;;;;;1.27;0.77;;;21.60;78.10;;;20.53;51.88;99893.78;10298023;28;96772;-90
2022/09/12 12:48:57;;;;;;;1.25;0.70;;;21.90;77.60;;;20.48;50.90;99890.97;10263787;28;96785;-90
2022/09/12 12:54:04;;;;;;;0.88;0.57;;;21.90;75.90;;;20.38;50.78;99890.72;10302513;28;96592;-91
2022/09/12 12:59:22;;;;;;;1.13;0.80;;;21.70;75.40;;;20.38;51.42;99876.44;10291425;28;97005;-90
2022/09/12 13:04:29;;;;;;;1.80;0.70;;;21.70;76.50;;;20.48;50.51;99882.88;10298179;28;96739;-88
2022/09/12 13:09:43;;;;;;;0.80;0.65;;;21.80;75.60;;;20.61;49.77;99881.78;10296953;28;96620;-89
2022/09/12 13:14:47;;;;;;;0.95;0.65;;;21.90;74.70;;;20.71;49.34;99873.06;10291427;28;97461;-88
2022/09/12 13:20:02;;;;;;;0.80;0.60;;;22.00;74.00;;;20.91;49.08;99867.19;10284167;28;96630;-89
2022/09/12 13:25:35;;;;;;;0.93;0.70;;;22.10;73.20;;;20.99;47.52;99864.91;10304548;28;96641;-89
2022/09/12 13:30:46;;;;;;;1.27;0.60;;;22.30;69.40;;;20.95;46.10;99847.56;10304299;28;97026;-89
2022/09/12 13:36:04;;;;;;;0.98;0.63;;;22.30;69.20;;;21.07;47.72;99845.59;10305657;28;98869;-86
2022/09/12 13:41:52;;;;;;;1.23;0.65;;;22.30;71.30;;;21.15;47.25;99840.84;10295916;28;96585;-88
2022/09/12 13:46:59;;;;;;;0.68;0.50;;;22.40;70.10;;;21.29;47.13;99836.75;10259004;28;96570;-89
2022/09/12 13:52:14;;;;;;;0.68;0.40;;;22.50;70.80;;;21.40;46.08;99843.97;10313509;28;96573;-89
2022/09/12 13:57:35;;;;;;;0.88;0.40;;;22.70;69.50;;;21.44;44.07;99838.91;10303953;28;97144;-88
2022/09/12 14:02:39;;;;;;;0.38;0.30;;;22.70;66.90;;;21.44;42.73;99834.31;10294020;28;97917;-88
2022/09/12 14:08:02;;;;;;;0.50;0.30;;;22.70;64.50;;;21.42;42.38;99828.34;10290213;28;96691;-90
2022/09/12 14:13:25;;;;;;;0.80;0.40;;;22.70;63.30;;;21.46;43.12;99834.88;10292681;28;96640;-87
2022/09/12 14:18:32;;;;;;;0.60;0.40;;;22.70;64.90;;;21.61;43.26;99824.28;10299677;28;96639;-87
2022/09/12 14:23:41;;;;;;;1.02;0.47;;;22.90;65.40;;;21.83;42.50;99831.59;10291625;28;96608;-88
2022/09/12 14:28:46;;;;;;;0.52;0.40;;;23.10;64.80;;;21.89;41.58;99827.88;10276463;28;96864;-89
2022/09/12 14:34:09;;;;;;;0.55;0.30;;;23.20;62.40;;;21.96;41.61;99836.66;10308871;28;96740;-89
2022/09/12 14:39:30;;;;;;;0.20;0.20;;;23.20;62.50;;;21.95;41.02;99834.16;10289526;28;96545;-88
2022/09/12 14:44:35;;;;;;;0.60;0.40;;;23.20;61.70;;;22.00;40.83;99845.06;10291867;28;96523;-87
2022/09/12 14:49:38;;;;;;;0.50;0.40;;;23.30;61.30;;;22.04;40.16;99843.50;10293917;28;96741;-88
2022/09/12 14:55:15;;;;;;;0.63;0.40;;;23.30;59.80;;;22.03;39.91;99837.28;10298069;28;96448;-91
2022/09/12 15:00:21;;;;;;;0.90;0.50;;;23.40;58.80;;;22.11;40.08;99828.72;10284409;28;96701;-87
2022/09/12 15:05:26;;;;;;;0.45;0.30;;;23.60;60.30;;;22.39;40.32;99832.31;10292393;28;96544;-90
2022/09/12 15:10:39;;;;;;;0.80;0.40;;;23.90;60.40;;;22.75;39.92;99827.25;10278439;28;98069;-88
2022/09/12 15:15:56;;;;;;;0.68;0.35;;;24.30;59.80;;;22.85;38.62;99830.03;10301322;28;96574;-88
2022/09/12 15:21:06;;;;;;;1.75;0.30;;;24.50;56.80;;;22.82;38.70;99825.16;10308269;28;96638;-87
2022/09/12 15:26:14;;;;;;;0.80;0.30;;;24.50;57.40;;;22.71;38.17;99816.91;10286722;28;96620;-90
2022/09/12 15:31:29;;;;;;;0.47;0.30;;;24.30;56.40;;;22.69;38.33;99823.69;10265736;28;96712;-87
2022/09/12 15:36:32;;;;;;;0.40;0.32;;;24.30;56.70;;;22.76;37.83;99828.88;10297773;28;96626;-88
2022/09/12 15:41:37;;;;;;;0.52;0.40;;;24.50;56.50;;;22.77;38.07;99827.81;10279944;28;96683;-88
2022/09/12 15:46:40;;;;;;;0.98;0.30;;;24.50;56.30;;;22.90;38.05;99824.69;10294307;28;96589;-88
2022/09/12 15:51:43;;;;;;;0.60;0.40;;;24.60;56.30;;;22.88;37.61;99827.66;10311510;28;96727;-89
2022/09/12 15:56:46;;;;;;;0.20;0.20;;;24.70;56.00;;;22.52;37.68;99826.47;10295652;28;97494;-89
2022/09/12 16:01:49;;;;;;;1.10;0.40;;;24.20;55.50;;;22.06;39.00;99831.34;10313258;28;96539;-88
2022/09/12 16:06:54;;;;;;;0.70;0.30;;;23.60;57.10;;;21.77;40.13;99832.59;10294567;28;97058;-88
2022/09/12 16:11:57;;;;;;;0.63;0.30;;;23.20;58.20;;;21.39;41.03;99850.44;10313971;28;96505;-88
2022/09/12 16:17:00;;;;;;;0.82;0.40;;;22.80;59.00;;;21.00;41.58;99838.72;10289657;28;97906;-87
2022/09/12 16:22:03;;;;;;;0.50;0.30;;;22.50;59.70;;;20.68;42.73;99841.13;10287892;28;96872;-86
2022/09/12 16:27:06;;;;;;;0.75;0.40;;;22.10;60.60;;;20.42;43.23;99845.22;10281661;28;96535;-87
2022/09/12 16:32:09;;;;;;;0.80;0.40;;;21.90;61.40;;;20.15;43.55;99842.25;10293467;28;96569;-87
2022/09/12 16:37:12;;;;;;;1.27;0.65;;;21.60;62.00;;;19.83;43.64;99845.38;10295634;28;98325;-87
2022/09/12 16:42:18;;;;;;;0.57;0.30;;;21.30;62.20;;;19.59;44.18;99849.97;10285283;28;96579;-87
2022/09/12 16:47:21;;;;;;;0.40;0.30;;;21.00;62.50;;;19.36;44.62;99845.34;10271458;28;96748;-87
2022/09/12 16:52:24;;;;;;;1.00;0.40;;;20.80;62.90;;;19.18;45.10;99853.53;10315549;28;97516;-87
2022/09/12 16:57:26;;;;;;;0.25;0.20;;;20.60;63.30;;;18.99;45.92;99856.31;10280926;28;98152;-87
2022/09/12 17:02:29;;;;;;;0.38;0.20;;;20.50;63.70;;;18.81;46.82;99852.88;10303055;28;97416;-86
2022/09/12 17:07:33;;;;;;;0.40;0.30;;;20.30;64.30;;;18.61;47.21;99861.22;10282376;28;96591;-86
2022/09/12 17:12:36;;;;;;;0.52;0.35;;;20.10;64.60;;;18.43;47.86;99862.91;10283729;28;96986;-86
2022/09/12 17:17:39;;;;;;;0.63;0.30;;;20.00;65.20;;;18.19;48.63;99859.28;10275585;28;96769;-86
2022/09/12 17:22:42;;;;;;;0.70;0.30;;;19.80;65.70;;;18.00;49.34;99879.16;10274411;28;97035;-87
2022/09/12 17:27:44;;;;;;;0.60;0.30;;;19.60;66.20;;;17.81;49.65;99870.28;10282361;28;96649;-88
2022/09/12 17:32:51;;;;;;;0.50;0.30;;;19.40;67.00;;;17.73;49.56;99878.63;10301755;28;97491;-86
2022/09/12 17:37:54;;;;;;;0.65;0.30;;;19.30;67.20;;;17.69;49.73;99890.00;10288904;28;97251;-86
2022/09/12 17:42:57;;;;;;;2.22;0.50;;;19.20;67.50;;;17.63;49.60;99899.75;10297340;28;96687;-85
2022/09/12 17:48:01;;;;;;;0.70;0.40;;;19.10;67.60;;;17.57;49.64;99906.88;10309540;28;96658;-86
2022/09/12 17:53:05;;;;;;;0.85;0.40;;;19.10;67.80;;;17.50;50.12;99916.00;10303406;28;98055;-86
2022/09/12 17:58:08;;;;;;;0.63;0.47;;;19.00;68.00;;;17.39;50.79;99920.22;10292401;28;96662;-86
2022/09/12 18:03:11;;;;;;;0.75;0.43;;;18.90;68.30;;;17.19;51.29;99941.03;10292000;28;96573;-86
2022/09/12 18:08:14;;;;;;;1.10;0.43;;;18.70;69.10;;;16.98;52.32;99944.91;10274322;28;98383;-85
2022/09/12 18:13:17;;;;;;;1.67;0.68;;;18.50;69.70;;;16.77;52.98;99941.47;10306190;28;98658;-85
2022/09/12 18:18:20;;;;;;;0.52;0.43;;;18.30;70.60;;;16.54;53.45;99947.34;10305769;28;97168;-86
2022/09/12 18:23:23;;;;;;;0.70;0.50;;;18.10;71.00;;;16.36;54.00;99952.56;10283600;28;96601;-86
2022/09/12 18:28:26;;;;;;;1.55;0.60;;;17.90;71.60;;;16.18;54.81;99955.91;10274009;28;96634;-86
2022/09/12 18:33:29;;;;;;;0.30;0.30;;;17.70;72.30;;;16.02;54.89;99951.84;10297904;28;96683;-86
2022/09/12 18:38:32;;;;;;;0.63;0.47;;;17.60;72.50;;;15.99;54.95;99957.59;10279060;28;97321;-86
2022/09/12 18:43:35;;;;;;;0.98;0.60;;;17.60;72.50;;;15.95;55.01;99951.03;10290737;28;96519;-85
2022/09/12 18:48:39;;;;;;;0.77;0.47;;;17.50;72.80;;;15.88;55.55;99954.75;10272509;28;97737;-86
2022/09/12 18:53:42;;;;;;;1.00;0.52;;;17.50;72.90;;;15.81;56.15;99959.28;10275880;28;97826;-86
2022/09/12 18:58:51;;;;;;;1.20;0.65;;;17.30;74.30;;;15.69;56.36;99962.59;10305552;28;96684;-88
2022/09/12 19:03:54;;;;;;;1.10;0.65;;;17.30;74.10;;;15.58;56.21;99952.47;10288906;28;96781;-87
2022/09/12 19:08:58;;;;;;;1.02;0.57;;;17.10;74.30;;;15.51;56.39;99957.00;10256122;28;96951;-87
2022/09/12 19:14:07;;;;;;;1.38;0.70;;;17.00;74.80;;;15.46;56.60;99962.97;10287475;28;97433;-88
2022/09/12 19:19:10;;;;;;;1.55;0.98;;;17.00;75.00;;;15.40;56.74;99960.28;10252452;28;97441;-87
2022/09/12 19:24:15;;;;;;;1.90;1.13;;;16.90;75.40;;;15.32;56.59;99953.28;10273924;28;98758;-87
2022/09/12 19:29:18;;;;;;;4.72;2.63;;;16.80;75.40;;;15.30;56.16;99959.88;10301102;28;96792;-88
2022/09/12 19:34:21;;;;;;;3.60;2.13;;;16.80;75.10;;;15.26;55.53;99954.91;10286733;28;96639;-87
2022/09/12 19:39:24;;;;;;;2.10;1.33;;;16.70;74.60;;;15.27;55.20;99956.56;10307459;28;96600;-87
2022/09/12 19:44:29;;;;;;;1.20;0.98;;;16.80;74.30;;;15.29;54.89;99951.00;10292118;28;97379;-87
2022/09/12 19:49:32;;;;;;;2.10;0.63;;;16.80;73.90;;;15.35;54.56;99949.34;10272108;28;98809;-86
2022/09/12 19:54:34;;;;;;;1.95;0.90;;;16.90;73.60;;;15.39;53.99;99953.28;10282196;28;96535;-86
2022/09/12 19:59:37;;;;;;;1.05;0.63;;;16.90;73.10;;;15.41;54.20;99945.84;10299692;28;98559;-88
2022/09/12 20:04:40;;;;;;;1.85;0.60;;;16.90;73.10;;;15.39;53.76;99940.72;10300598;28;98007;-86
2022/09/12 20:09:43;;;;;;;1.35;0.60;;;16.90;72.80;;;15.39;53.80;99946.06;10276702;28;96730;-90
2022/09/12 20:14:46;;;;;;;0.90;0.60;;;16.90;72.70;;;15.35;53.90;99938.66;10307601;28;96564;-89
2022/09/12 20:19:48;;;;;;;0.73;0.50;;;16.90;72.80;;;15.32;54.05;99941.75;10292943;28;97579;-90
2022/09/12 20:24:51;;;;;;;1.48;0.73;;;16.90;72.80;;;15.20;54.00;99942.34;10291626;28;97490;-89
2022/09/12 20:29:56;;;;;;;0.60;0.40;;;16.80;72.80;;;15.09;53.86;99955.50;10283205;28;96448;-90
2022/09/12 20:34:59;;;;;;;1.13;0.50;;;16.60;72.70;;;15.01;54.17;99953.03;10322524;28;96648;-91
2022/09/12 20:40:03;;;;;;;1.30;0.70;;;16.50;72.90;;;14.98;54.27;99948.91;10285730;28;96741;-91
2022/09/12 20:45:07;;;;;;;1.10;0.60;;;16.50;73.10;;;14.90;54.61;99951.75;10279486;28;96526;-91
2022/09/12 20:50:10;;;;;;;2.15;0.68;;;16.40;73.20;;;14.78;54.71;99956.06;10328486;28;96662;-91
2022/09/12 20:55:13;;;;;;;0.95;0.60;;;16.30;73.40;;;14.70;54.98;99957.88;10311783;28;96416;-89
2022/09/12 21:00:16;;;;;;;1.45;0.65;;;16.20;73.50;;;14.59;55.05;99953.13;10293451;28;96549;-88
2022/09/12 21:05:19;;;;;;;2.03;0.82;;;16.10;73.70;;;14.54;55.46;99958.22;10301357;28;96685;-88
2022/09/12 21:10:23;;;;;;;2.58;0.63;;;16.10;73.90;;;14.51;55.49;99973.84;10296329;28;96453;-90
2022/09/12 21:15:26;;;;;;;2.28;0.60;;;16.00;73.90;;;14.41;56.48;99968.84;10286727;28;98359;-89
2022/09/12 21:20:30;;;;;;;1.10;0.60;;;16.00;74.20;;;14.30;57.69;99983.56;10288139;28;97422;-87
2022/09/12 21:25:33;;;;;;;0.95;0.70;;;15.90;75.00;;;14.12;58.23;99986.75;10306421;28;96949;-87
2022/09/12 21:30:37;;;;;;;1.00;0.70;;;15.80;75.80;;;13.88;59.24;99995.22;10287428;28;97379;-90